sensor_id;sensor_type;location;lat;lon;timestamp;pressure;altitude;pressure_sealevel;temperature
14784;BMP180;7483;50.498;12.138;2022-12-07T00:01:46;96698.00;;;1.80
14784;BMP180;7483;50.498;12.138;2022-12-07T00:04:18;96698.00;;;1.70
14784;BMP180;7483;50.498;12.138;2022-12-07T00:06:52;96693.00;;;1.60
14784;BMP180;7483;50.498;12.138;2022-12-07T00:09:22;96687.00;;;1.60
14784;BMP180;7483;50.498;12.138;2022-12-07T00:11:51;96691.00;;;1.60
14784;BMP180;7483;50.498;12.138;2022-12-07T00:14:21;96682.00;;;1.40
14784;BMP180;7483;50.498;12.138;2022-12-07T00:16:50;96682.00;;;1.50
14784;BMP180;7483;50.498;12.138;2022-12-07T00:19:19;96685.00;;;1.50
14784;BMP180;7483;50.498;12.138;2022-12-07T00:21:47;96686.00;;;1.40
14784;BMP180;7483;50.498;12.138;2022-12-07T00:24:15;96676.00;;;1.50
14784;BMP180;7483;50.498;12.138;2022-12-07T00:26:45;96685.00;;;1.40
14784;BMP180;7483;50.498;12.138;2022-12-07T00:29:18;96679.00;;;1.30
14784;BMP180;7483;50.498;12.138;2022-12-07T00:31:47;96675.00;;;1.50
14784;BMP180;7483;50.498;12.138;2022-12-07T00:34:18;96678.00;;;1.40
14784;BMP180;7483;50.498;12.138;2022-12-07T00:36:47;96665.00;;;1.40
14784;BMP180;7483;50.498;12.138;2022-12-07T00:39:17;96660.00;;;1.40
14784;BMP180;7483;50.498;12.138;2022-12-07T00:41:46;96665.00;;;1.20
14784;BMP180;7483;50.498;12.138;2022-12-07T00:44:14;96671.00;;;1.30
14784;BMP180;7483;50.498;12.138;2022-12-07T00:46:43;96656.00;;;1.20
14784;BMP180;7483;50.498;12.138;2022-12-07T00:49:12;96655.00;;;1.20
14784;BMP180;7483;50.498;12.138;2022-12-07T00:51:40;96643.00;;;1.20
14784;BMP180;7483;50.498;12.138;2022-12-07T00:54:08;96647.00;;;1.20
14784;BMP180;7483;50.498;12.138;2022-12-07T00:56:36;96640.00;;;1.20
14784;BMP180;7483;50.498;12.138;2022-12-07T00:59:06;96648.00;;;1.10
14784;BMP180;7483;50.498;12.138;2022-12-07T01:01:36;96651.00;;;1.10
14784;BMP180;7483;50.498;12.138;2022-12-07T01:04:05;96648.00;;;1.00
14784;BMP180;7483;50.498;12.138;2022-12-07T01:06:33;96652.00;;;1.00
14784;BMP180;7483;50.498;12.138;2022-12-07T01:09:03;96648.00;;;1.00
14784;BMP180;7483;50.498;12.138;2022-12-07T01:11:32;96649.00;;;1.20
14784;BMP180;7483;50.498;12.138;2022-12-07T01:14:00;96648.00;;;1.10
14784;BMP180;7483;50.498;12.138;2022-12-07T01:16:32;96650.00;;;1.10
14784;BMP180;7483;50.498;12.138;2022-12-07T01:19:01;96665.00;;;1.20
14784;BMP180;7483;50.498;12.138;2022-12-07T01:21:33;96648.00;;;1.20
14784;BMP180;7483;50.498;12.138;2022-12-07T01:24:06;96640.00;;;1.20
14784;BMP180;7483;50.498;12.138;2022-12-07T01:26:35;96639.00;;;1.20
14784;BMP180;7483;50.498;12.138;2022-12-07T01:29:03;96636.00;;;1.10
14784;BMP180;7483;50.498;12.138;2022-12-07T01:31:33;96656.00;;;1.20
14784;BMP180;7483;50.498;12.138;2022-12-07T01:34:01;96632.00;;;1.20
14784;BMP180;7483;50.498;12.138;2022-12-07T01:36:32;96640.00;;;1.20
14784;BMP180;7483;50.498;12.138;2022-12-07T01:39:05;96635.00;;;1.20
14784;BMP180;7483;50.498;12.138;2022-12-07T01:41:37;96642.00;;;1.20
14784;BMP180;7483;50.498;12.138;2022-12-07T01:44:22;96637.00;;;0.60
14784;BMP180;7483;50.498;12.138;2022-12-07T01:46:54;96569.00;;;1.10
14784;BMP180;7483;50.498;12.138;2022-12-07T01:49:28;96497.00;;;1.10
14784;BMP180;7483;50.498;12.138;2022-12-07T01:52:09;96617.00;;;1.00
14784;BMP180;7483;50.498;12.138;2022-12-07T01:54:39;96589.00;;;0.90
14784;BMP180;7483;50.498;12.138;2022-12-07T01:57:08;96593.00;;;0.80
14784;BMP180;7483;50.498;12.138;2022-12-07T01:59:37;96606.00;;;0.80
14784;BMP180;7483;50.498;12.138;2022-12-07T02:02:20;96592.00;;;0.80
14784;BMP180;7483;50.498;12.138;2022-12-07T02:04:53;96604.00;;;0.90
14784;BMP180;7483;50.498;12.138;2022-12-07T02:07:23;96599.00;;;0.90
14784;BMP180;7483;50.498;12.138;2022-12-07T02:09:51;96593.00;;;0.90
14784;BMP180;7483;50.498;12.138;2022-12-07T02:12:21;96605.00;;;0.90
14784;BMP180;7483;50.498;12.138;2022-12-07T02:14:50;96602.00;;;0.80
14784;BMP180;7483;50.498;12.138;2022-12-07T02:17:29;96605.00;;;0.70
14784;BMP180;7483;50.498;12.138;2022-12-07T02:20:18;96602.00;;;0.70
14784;BMP180;7483;50.498;12.138;2022-12-07T02:26:41;96610.00;;;0.60
14784;BMP180;7483;50.498;12.138;2022-12-07T02:29:21;96626.00;;;0.60
14784;BMP180;7483;50.498;12.138;2022-12-07T02:32:01;96547.00;;;0.60
14784;BMP180;7483;50.498;12.138;2022-12-07T02:34:42;96610.00;;;0.50
14784;BMP180;7483;50.498;12.138;2022-12-07T02:37:23;96614.00;;;0.40
14784;BMP180;7483;50.498;12.138;2022-12-07T02:39:59;96604.00;;;0.40
14784;BMP180;7483;50.498;12.138;2022-12-07T02:42:36;96597.00;;;0.40
14784;BMP180;7483;50.498;12.138;2022-12-07T02:45:10;96588.00;;;0.40
14784;BMP180;7483;50.498;12.138;2022-12-07T02:47:41;96505.00;;;0.50
14784;BMP180;7483;50.498;12.138;2022-12-07T02:50:10;96594.00;;;0.50
14784;BMP180;7483;50.498;12.138;2022-12-07T02:52:39;96608.00;;;0.60
14784;BMP180;7483;50.498;12.138;2022-12-07T02:55:08;96607.00;;;0.60
14784;BMP180;7483;50.498;12.138;2022-12-07T02:57:53;96607.00;;;0.50
14784;BMP180;7483;50.498;12.138;2022-12-07T03:00:24;96603.00;;;0.40
14784;BMP180;7483;50.498;12.138;2022-12-07T03:02:59;96599.00;;;0.50
14784;BMP180;7483;50.498;12.138;2022-12-07T03:08:51;96580.00;;;0.30
14784;BMP180;7483;50.498;12.138;2022-12-07T03:11:29;96575.00;;;0.20
14784;BMP180;7483;50.498;12.138;2022-12-07T03:14:04;96562.00;;;0.20
14784;BMP180;7483;50.498;12.138;2022-12-07T03:16:46;96564.00;;;0.20
14784;BMP180;7483;50.498;12.138;2022-12-07T03:19:18;96576.00;;;0.30
14784;BMP180;7483;50.498;12.138;2022-12-07T03:21:53;96561.00;;;0.40
14784;BMP180;7483;50.498;12.138;2022-12-07T03:24:29;96563.00;;;0.30
14784;BMP180;7483;50.498;12.138;2022-12-07T03:27:03;96560.00;;;0.30
14784;BMP180;7483;50.498;12.138;2022-12-07T03:29:38;96568.00;;;0.40
14784;BMP180;7483;50.498;12.138;2022-12-07T03:32:16;96568.00;;;0.40
14784;BMP180;7483;50.498;12.138;2022-12-07T03:34:55;96569.00;;;0.50
14784;BMP180;7483;50.498;12.138;2022-12-07T03:37:34;96563.00;;;0.30
14784;BMP180;7483;50.498;12.138;2022-12-07T03:40:11;96568.00;;;0.60
14784;BMP180;7483;50.498;12.138;2022-12-07T03:42:41;96559.00;;;0.50
14784;BMP180;7483;50.498;12.138;2022-12-07T03:45:11;96557.00;;;0.50
14784;BMP180;7483;50.498;12.138;2022-12-07T03:47:48;96555.00;;;0.50
14784;BMP180;7483;50.498;12.138;2022-12-07T03:50:26;96561.00;;;0.40
14784;BMP180;7483;50.498;12.138;2022-12-07T03:53:04;96561.00;;;0.40
14784;BMP180;7483;50.498;12.138;2022-12-07T03:55:38;96541.00;;;0.60
14784;BMP180;7483;50.498;12.138;2022-12-07T03:58:11;96554.00;;;0.60
14784;BMP180;7483;50.498;12.138;2022-12-07T04:00:41;96564.00;;;0.60
14784;BMP180;7483;50.498;12.138;2022-12-07T04:03:11;96555.00;;;0.60
14784;BMP180;7483;50.498;12.138;2022-12-07T04:05:40;96560.00;;;0.60
14784;BMP180;7483;50.498;12.138;2022-12-07T04:08:08;96551.00;;;0.60
14784;BMP180;7483;50.498;12.138;2022-12-07T04:10:37;96542.00;;;0.60
14784;BMP180;7483;50.498;12.138;2022-12-07T04:13:05;96532.00;;;0.60
14784;BMP180;7483;50.498;12.138;2022-12-07T04:15:33;96543.00;;;0.60
14784;BMP180;7483;50.498;12.138;2022-12-07T04:18:01;96541.00;;;0.60
14784;BMP180;7483;50.498;12.138;2022-12-07T04:20:30;96545.00;;;0.70
14784;BMP180;7483;50.498;12.138;2022-12-07T04:22:58;96540.00;;;0.70
14784;BMP180;7483;50.498;12.138;2022-12-07T04:25:27;96530.00;;;0.60
14784;BMP180;7483;50.498;12.138;2022-12-07T04:27:55;96537.00;;;0.60
14784;BMP180;7483;50.498;12.138;2022-12-07T04:30:23;96523.00;;;0.70
14784;BMP180;7483;50.498;12.138;2022-12-07T04:32:51;96524.00;;;0.60
14784;BMP180;7483;50.498;12.138;2022-12-07T04:35:19;96508.00;;;0.60
14784;BMP180;7483;50.498;12.138;2022-12-07T04:37:48;96508.00;;;0.60
14784;BMP180;7483;50.498;12.138;2022-12-07T04:40:17;96520.00;;;0.30
14784;BMP180;7483;50.498;12.138;2022-12-07T04:42:45;96507.00;;;0.60
14784;BMP180;7483;50.498;12.138;2022-12-07T04:45:13;96513.00;;;0.70
14784;BMP180;7483;50.498;12.138;2022-12-07T04:47:41;96504.00;;;0.70
14784;BMP180;7483;50.498;12.138;2022-12-07T04:50:10;96508.00;;;0.70
14784;BMP180;7483;50.498;12.138;2022-12-07T04:52:38;96517.00;;;0.80
14784;BMP180;7483;50.498;12.138;2022-12-07T04:55:08;96511.00;;;0.80
14784;BMP180;7483;50.498;12.138;2022-12-07T04:57:36;96503.00;;;0.80
14784;BMP180;7483;50.498;12.138;2022-12-07T05:00:06;96364.00;;;0.70
14784;BMP180;7483;50.498;12.138;2022-12-07T05:02:34;96507.00;;;0.80
14784;BMP180;7483;50.498;12.138;2022-12-07T05:05:03;96498.00;;;0.80
14784;BMP180;7483;50.498;12.138;2022-12-07T05:07:31;96510.00;;;0.90
14784;BMP180;7483;50.498;12.138;2022-12-07T05:09:59;96519.00;;;0.90
14784;BMP180;7483;50.498;12.138;2022-12-07T05:12:29;96507.00;;;0.90
14784;BMP180;7483;50.498;12.138;2022-12-07T05:14:58;96493.00;;;0.80
14784;BMP180;7483;50.498;12.138;2022-12-07T05:17:26;96503.00;;;0.90
14784;BMP180;7483;50.498;12.138;2022-12-07T05:19:54;96509.00;;;0.90
14784;BMP180;7483;50.498;12.138;2022-12-07T05:22:22;96512.00;;;0.90
14784;BMP180;7483;50.498;12.138;2022-12-07T05:24:52;96518.00;;;0.90
14784;BMP180;7483;50.498;12.138;2022-12-07T05:27:20;96514.00;;;0.90
14784;BMP180;7483;50.498;12.138;2022-12-07T05:29:50;96529.00;;;0.90
14784;BMP180;7483;50.498;12.138;2022-12-07T05:32:18;96534.00;;;1.00
14784;BMP180;7483;50.498;12.138;2022-12-07T05:34:46;96520.00;;;1.00
14784;BMP180;7483;50.498;12.138;2022-12-07T05:37:14;96526.00;;;1.00
14784;BMP180;7483;50.498;12.138;2022-12-07T05:39:42;96522.00;;;1.00
14784;BMP180;7483;50.498;12.138;2022-12-07T05:42:11;96495.00;;;1.00
14784;BMP180;7483;50.498;12.138;2022-12-07T05:44:39;96513.00;;;1.10
14784;BMP180;7483;50.498;12.138;2022-12-07T05:47:09;96512.00;;;1.10
14784;BMP180;7483;50.498;12.138;2022-12-07T05:49:37;96507.00;;;1.10
14784;BMP180;7483;50.498;12.138;2022-12-07T05:52:06;96507.00;;;1.00
14784;BMP180;7483;50.498;12.138;2022-12-07T05:54:34;96514.00;;;1.00
14784;BMP180;7483;50.498;12.138;2022-12-07T05:57:02;96511.00;;;1.00
14784;BMP180;7483;50.498;12.138;2022-12-07T05:59:30;96518.00;;;1.10
14784;BMP180;7483;50.498;12.138;2022-12-07T06:02:00;96519.00;;;1.00
14784;BMP180;7483;50.498;12.138;2022-12-07T06:04:33;96504.00;;;1.00
14784;BMP180;7483;50.498;12.138;2022-12-07T06:07:02;96508.00;;;1.10
14784;BMP180;7483;50.498;12.138;2022-12-07T06:09:31;96502.00;;;1.10
14784;BMP180;7483;50.498;12.138;2022-12-07T06:11:59;96507.00;;;1.00
14784;BMP180;7483;50.498;12.138;2022-12-07T06:14:45;96510.00;;;1.10
14784;BMP180;7483;50.498;12.138;2022-12-07T06:17:14;96509.00;;;1.10
14784;BMP180;7483;50.498;12.138;2022-12-07T06:19:44;96519.00;;;1.20
14784;BMP180;7483;50.498;12.138;2022-12-07T06:22:12;96526.00;;;1.20
14784;BMP180;7483;50.498;12.138;2022-12-07T06:24:40;96506.00;;;1.20
14784;BMP180;7483;50.498;12.138;2022-12-07T06:27:09;96528.00;;;1.20
14784;BMP180;7483;50.498;12.138;2022-12-07T06:29:37;96536.00;;;1.30
14784;BMP180;7483;50.498;12.138;2022-12-07T06:32:05;96527.00;;;1.30
14784;BMP180;7483;50.498;12.138;2022-12-07T06:34:34;96529.00;;;1.40
14784;BMP180;7483;50.498;12.138;2022-12-07T06:37:03;96526.00;;;1.40
14784;BMP180;7483;50.498;12.138;2022-12-07T06:39:31;96538.00;;;1.40
14784;BMP180;7483;50.498;12.138;2022-12-07T06:42:00;96539.00;;;1.40
14784;BMP180;7483;50.498;12.138;2022-12-07T06:44:28;96523.00;;;1.50
14784;BMP180;7483;50.498;12.138;2022-12-07T06:46:56;96524.00;;;1.40
14784;BMP180;7483;50.498;12.138;2022-12-07T06:49:44;96522.00;;;1.40
14784;BMP180;7483;50.498;12.138;2022-12-07T06:52:13;96529.00;;;1.40
14784;BMP180;7483;50.498;12.138;2022-12-07T06:54:42;96535.00;;;1.40
14784;BMP180;7483;50.498;12.138;2022-12-07T06:57:10;96596.00;;;1.40
14784;BMP180;7483;50.498;12.138;2022-12-07T06:59:40;96526.00;;;1.40
14784;BMP180;7483;50.498;12.138;2022-12-07T07:02:08;96528.00;;;1.40
14784;BMP180;7483;50.498;12.138;2022-12-07T07:04:37;96525.00;;;1.40
14784;BMP180;7483;50.498;12.138;2022-12-07T07:07:05;96524.00;;;1.40
14784;BMP180;7483;50.498;12.138;2022-12-07T07:09:35;96533.00;;;1.40
14784;BMP180;7483;50.498;12.138;2022-12-07T07:12:03;96521.00;;;1.40
14784;BMP180;7483;50.498;12.138;2022-12-07T07:14:31;96527.00;;;1.40
14784;BMP180;7483;50.498;12.138;2022-12-07T07:17:00;96529.00;;;1.40
14784;BMP180;7483;50.498;12.138;2022-12-07T07:19:28;96538.00;;;1.40
14784;BMP180;7483;50.498;12.138;2022-12-07T07:21:56;96525.00;;;1.40
14784;BMP180;7483;50.498;12.138;2022-12-07T07:24:24;96530.00;;;1.40
14784;BMP180;7483;50.498;12.138;2022-12-07T07:26:54;96537.00;;;1.40
14784;BMP180;7483;50.498;12.138;2022-12-07T07:29:22;96532.00;;;1.50
14784;BMP180;7483;50.498;12.138;2022-12-07T07:31:50;96220.00;;;1.20
14784;BMP180;7483;50.498;12.138;2022-12-07T07:34:18;96523.00;;;1.50
14784;BMP180;7483;50.498;12.138;2022-12-07T07:36:46;96216.00;;;1.30
14784;BMP180;7483;50.498;12.138;2022-12-07T07:39:15;96227.00;;;1.20
14784;BMP180;7483;50.498;12.138;2022-12-07T07:41:43;96240.00;;;1.20
14784;BMP180;7483;50.498;12.138;2022-12-07T07:44:15;96221.00;;;1.20
14784;BMP180;7483;50.498;12.138;2022-12-07T07:46:43;96223.00;;;1.20
14784;BMP180;7483;50.498;12.138;2022-12-07T07:49:11;96240.00;;;1.20
14784;BMP180;7483;50.498;12.138;2022-12-07T07:51:39;96257.00;;;1.20
14784;BMP180;7483;50.498;12.138;2022-12-07T07:54:07;96237.00;;;1.20
14784;BMP180;7483;50.498;12.138;2022-12-07T07:56:35;96252.00;;;1.10
14784;BMP180;7483;50.498;12.138;2022-12-07T07:59:03;96258.00;;;1.10
14784;BMP180;7483;50.498;12.138;2022-12-07T08:01:33;96164.00;;;1.10
14784;BMP180;7483;50.498;12.138;2022-12-07T08:04:01;96239.00;;;1.10
14784;BMP180;7483;50.498;12.138;2022-12-07T08:06:30;96253.00;;;1.10
14784;BMP180;7483;50.498;12.138;2022-12-07T08:08:58;96261.00;;;1.10
14784;BMP180;7483;50.498;12.138;2022-12-07T08:11:26;96271.00;;;1.10
14784;BMP180;7483;50.498;12.138;2022-12-07T08:13:55;96278.00;;;1.10
14784;BMP180;7483;50.498;12.138;2022-12-07T08:16:23;96257.00;;;1.10
14784;BMP180;7483;50.498;12.138;2022-12-07T08:18:52;96272.00;;;1.10
14784;BMP180;7483;50.498;12.138;2022-12-07T08:21:20;96280.00;;;1.20
14784;BMP180;7483;50.498;12.138;2022-12-07T08:23:49;96299.00;;;1.20
14784;BMP180;7483;50.498;12.138;2022-12-07T08:26:17;96286.00;;;1.20
14784;BMP180;7483;50.498;12.138;2022-12-07T08:28:45;96292.00;;;1.30
14784;BMP180;7483;50.498;12.138;2022-12-07T08:31:15;96298.00;;;1.30
14784;BMP180;7483;50.498;12.138;2022-12-07T08:33:46;96293.00;;;1.20
14784;BMP180;7483;50.498;12.138;2022-12-07T08:36:16;96303.00;;;1.30
14784;BMP180;7483;50.498;12.138;2022-12-07T08:38:45;96323.00;;;1.40
14784;BMP180;7483;50.498;12.138;2022-12-07T08:41:33;96318.00;;;1.30
14784;BMP180;7483;50.498;12.138;2022-12-07T08:44:02;96301.00;;;1.40
14784;BMP180;7483;50.498;12.138;2022-12-07T08:46:35;96300.00;;;1.50
14784;BMP180;7483;50.498;12.138;2022-12-07T08:49:11;96308.00;;;1.60
14784;BMP180;7483;50.498;12.138;2022-12-07T08:51:41;96303.00;;;1.60
14784;BMP180;7483;50.498;12.138;2022-12-07T08:54:13;96301.00;;;1.60
14784;BMP180;7483;50.498;12.138;2022-12-07T08:56:43;96320.00;;;1.60
14784;BMP180;7483;50.498;12.138;2022-12-07T08:59:14;96315.00;;;1.70
14784;BMP180;7483;50.498;12.138;2022-12-07T09:01:43;96319.00;;;1.70
14784;BMP180;7483;50.498;12.138;2022-12-07T09:04:11;96308.00;;;1.80
14784;BMP180;7483;50.498;12.138;2022-12-07T09:06:41;96296.00;;;1.80
14784;BMP180;7483;50.498;12.138;2022-12-07T09:09:12;96303.00;;;1.80
14784;BMP180;7483;50.498;12.138;2022-12-07T09:11:41;96295.00;;;1.80
14784;BMP180;7483;50.498;12.138;2022-12-07T09:14:11;96317.00;;;1.80
14784;BMP180;7483;50.498;12.138;2022-12-07T09:16:40;96296.00;;;1.80
14784;BMP180;7483;50.498;12.138;2022-12-07T09:19:08;96306.00;;;1.90
14784;BMP180;7483;50.498;12.138;2022-12-07T09:21:36;96314.00;;;1.90
14784;BMP180;7483;50.498;12.138;2022-12-07T09:24:07;96288.00;;;1.90
14784;BMP180;7483;50.498;12.138;2022-12-07T09:26:36;96296.00;;;2.00
14784;BMP180;7483;50.498;12.138;2022-12-07T09:29:06;96299.00;;;2.00
14784;BMP180;7483;50.498;12.138;2022-12-07T09:31:36;96297.00;;;2.10
14784;BMP180;7483;50.498;12.138;2022-12-07T09:34:05;96309.00;;;2.10
14784;BMP180;7483;50.498;12.138;2022-12-07T09:36:34;96296.00;;;2.20
14784;BMP180;7483;50.498;12.138;2022-12-07T09:39:03;96300.00;;;2.20
14784;BMP180;7483;50.498;12.138;2022-12-07T09:41:33;96289.00;;;2.30
14784;BMP180;7483;50.498;12.138;2022-12-07T09:44:09;96287.00;;;2.30
14784;BMP180;7483;50.498;12.138;2022-12-07T09:46:41;96265.00;;;2.30
14784;BMP180;7483;50.498;12.138;2022-12-07T09:49:14;96291.00;;;2.50
14784;BMP180;7483;50.498;12.138;2022-12-07T09:51:44;96200.00;;;2.50
14784;BMP180;7483;50.498;12.138;2022-12-07T09:54:16;96269.00;;;2.60
14784;BMP180;7483;50.498;12.138;2022-12-07T09:56:45;96283.00;;;2.60
14784;BMP180;7483;50.498;12.138;2022-12-07T09:59:17;96290.00;;;2.70
14784;BMP180;7483;50.498;12.138;2022-12-07T10:01:48;96276.00;;;2.70
14784;BMP180;7483;50.498;12.138;2022-12-07T10:04:21;96284.00;;;2.70
14784;BMP180;7483;50.498;12.138;2022-12-07T10:06:50;96289.00;;;2.80
14784;BMP180;7483;50.498;12.138;2022-12-07T10:09:21;96282.00;;;2.90
14784;BMP180;7483;50.498;12.138;2022-12-07T10:12:06;96295.00;;;2.90
14784;BMP180;7483;50.498;12.138;2022-12-07T10:14:39;96266.00;;;2.90
14784;BMP180;7483;50.498;12.138;2022-12-07T10:17:36;96244.00;;;2.90
14784;BMP180;7483;50.498;12.138;2022-12-07T10:20:20;96275.00;;;2.80
14784;BMP180;7483;50.498;12.138;2022-12-07T10:23:01;96222.00;;;2.80
14784;BMP180;7483;50.498;12.138;2022-12-07T10:25:33;96235.00;;;2.90
14784;BMP180;7483;50.498;12.138;2022-12-07T10:28:15;96220.00;;;3.10
14784;BMP180;7483;50.498;12.138;2022-12-07T10:31:14;96172.00;;;3.00
14784;BMP180;7483;50.498;12.138;2022-12-07T10:33:51;96252.00;;;3.10
14784;BMP180;7483;50.498;12.138;2022-12-07T10:36:24;96192.00;;;3.00
14784;BMP180;7483;50.498;12.138;2022-12-07T10:39:00;96212.00;;;3.00
14784;BMP180;7483;50.498;12.138;2022-12-07T10:41:30;96217.00;;;2.90
14784;BMP180;7483;50.498;12.138;2022-12-07T10:43:59;96528.00;;;3.10
14784;BMP180;7483;50.498;12.138;2022-12-07T10:47:09;96527.00;;;3.10
14784;BMP180;7483;50.498;12.138;2022-12-07T10:50:12;96541.00;;;3.20
14784;BMP180;7483;50.498;12.138;2022-12-07T10:53:14;96539.00;;;3.20
14784;BMP180;7483;50.498;12.138;2022-12-07T10:56:03;96540.00;;;3.30
14784;BMP180;7483;50.498;12.138;2022-12-07T10:58:55;96538.00;;;3.40
14784;BMP180;7483;50.498;12.138;2022-12-07T11:01:33;96557.00;;;3.40
14784;BMP180;7483;50.498;12.138;2022-12-07T11:04:31;96479.00;;;3.50
14784;BMP180;7483;50.498;12.138;2022-12-07T11:07:12;96539.00;;;3.40
14784;BMP180;7483;50.498;12.138;2022-12-07T11:10:01;96539.00;;;3.60
14784;BMP180;7483;50.498;12.138;2022-12-07T11:12:56;96538.00;;;3.80
14784;BMP180;7483;50.498;12.138;2022-12-07T11:15:38;96555.00;;;3.90
14784;BMP180;7483;50.498;12.138;2022-12-07T11:18:21;96528.00;;;3.90
14784;BMP180;7483;50.498;12.138;2022-12-07T11:20:59;96520.00;;;3.70
14784;BMP180;7483;50.498;12.138;2022-12-07T11:23:48;96438.00;;;3.70
14784;BMP180;7483;50.498;12.138;2022-12-07T11:26:29;96457.00;;;3.60
14784;BMP180;7483;50.498;12.138;2022-12-07T11:29:19;96214.00;;;3.30
14784;BMP180;7483;50.498;12.138;2022-12-07T11:32:03;96518.00;;;3.50
14784;BMP180;7483;50.498;12.138;2022-12-07T11:34:46;96516.00;;;3.50
14784;BMP180;7483;50.498;12.138;2022-12-07T11:37:25;96163.00;;;3.20
14784;BMP180;7483;50.498;12.138;2022-12-07T11:40:15;96186.00;;;3.20
14784;BMP180;7483;50.498;12.138;2022-12-07T11:42:52;96182.00;;;3.30
14784;BMP180;7483;50.498;12.138;2022-12-07T11:45:26;96527.00;;;3.50
14784;BMP180;7483;50.498;12.138;2022-12-07T11:47:59;96186.00;;;3.20
14784;BMP180;7483;50.498;12.138;2022-12-07T11:50:35;96508.00;;;3.40
14784;BMP180;7483;50.498;12.138;2022-12-07T11:53:14;96510.00;;;3.30
14784;BMP180;7483;50.498;12.138;2022-12-07T11:55:50;96154.00;;;3.10
14784;BMP180;7483;50.498;12.138;2022-12-07T11:58:44;96188.00;;;3.10
14784;BMP180;7483;50.498;12.138;2022-12-07T12:01:29;96195.00;;;3.20
14784;BMP180;7483;50.498;12.138;2022-12-07T12:04:13;96137.00;;;4.70
14784;BMP180;7483;50.498;12.138;2022-12-07T12:06:45;96238.00;;;4.30
14784;BMP180;7483;50.498;12.138;2022-12-07T12:09:16;96475.00;;;4.20
14784;BMP180;7483;50.498;12.138;2022-12-07T12:15:48;96428.00;;;3.80
14784;BMP180;7483;50.498;12.138;2022-12-07T12:18:53;96472.00;;;3.70
14784;BMP180;7483;50.498;12.138;2022-12-07T12:21:44;96477.00;;;3.70
14784;BMP180;7483;50.498;12.138;2022-12-07T12:24:34;96465.00;;;3.80
14784;BMP180;7483;50.498;12.138;2022-12-07T12:27:27;96466.00;;;3.90
14784;BMP180;7483;50.498;12.138;2022-12-07T12:30:00;96473.00;;;3.80
14784;BMP180;7483;50.498;12.138;2022-12-07T12:32:47;96472.00;;;3.80
14784;BMP180;7483;50.498;12.138;2022-12-07T12:35:35;96473.00;;;3.70
14784;BMP180;7483;50.498;12.138;2022-12-07T12:38:33;96468.00;;;3.50
14784;BMP180;7483;50.498;12.138;2022-12-07T12:41:59;96462.00;;;3.90
14784;BMP180;7483;50.498;12.138;2022-12-07T12:45:18;96470.00;;;5.90
14784;BMP180;7483;50.498;12.138;2022-12-07T12:47:58;96479.00;;;5.30
14784;BMP180;7483;50.498;12.138;2022-12-07T12:50:44;96477.00;;;4.50
14784;BMP180;7483;50.498;12.138;2022-12-07T12:53:30;96465.00;;;4.10
14784;BMP180;7483;50.498;12.138;2022-12-07T12:56:25;96454.00;;;3.90
14784;BMP180;7483;50.498;12.138;2022-12-07T12:59:26;96418.00;;;3.70
14784;BMP180;7483;50.498;12.138;2022-12-07T13:02:15;96476.00;;;3.60
14784;BMP180;7483;50.498;12.138;2022-12-07T13:04:54;96456.00;;;3.60
14784;BMP180;7483;50.498;12.138;2022-12-07T13:08:00;96465.00;;;3.50
14784;BMP180;7483;50.498;12.138;2022-12-07T13:10:42;96447.00;;;3.50
14784;BMP180;7483;50.498;12.138;2022-12-07T13:13:35;96453.00;;;3.40
14784;BMP180;7483;50.498;12.138;2022-12-07T13:16:45;96453.00;;;3.40
14784;BMP180;7483;50.498;12.138;2022-12-07T13:19:56;96462.00;;;3.60
14784;BMP180;7483;50.498;12.138;2022-12-07T13:22:46;96453.00;;;3.70
14784;BMP180;7483;50.498;12.138;2022-12-07T13:25:31;96403.00;;;3.60
14784;BMP180;7483;50.498;12.138;2022-12-07T13:28:15;96443.00;;;3.80
14784;BMP180;7483;50.498;12.138;2022-12-07T13:31:00;96461.00;;;4.00
14784;BMP180;7483;50.498;12.138;2022-12-07T13:33:35;96465.00;;;5.00
14784;BMP180;7483;50.498;12.138;2022-12-07T13:36:03;96463.00;;;5.80
14784;BMP180;7483;50.498;12.138;2022-12-07T13:38:34;96472.00;;;6.10
14784;BMP180;7483;50.498;12.138;2022-12-07T13:41:13;96463.00;;;5.70
14784;BMP180;7483;50.498;12.138;2022-12-07T13:43:49;96466.00;;;5.70
14784;BMP180;7483;50.498;12.138;2022-12-07T13:46:26;96458.00;;;5.80
14784;BMP180;7483;50.498;12.138;2022-12-07T13:48:58;96459.00;;;5.70
14784;BMP180;7483;50.498;12.138;2022-12-07T13:51:28;96460.00;;;5.60
14784;BMP180;7483;50.498;12.138;2022-12-07T13:54:09;96476.00;;;5.00
14784;BMP180;7483;50.498;12.138;2022-12-07T13:56:38;96468.00;;;4.60
14784;BMP180;7483;50.498;12.138;2022-12-07T13:59:16;96453.00;;;4.30
14784;BMP180;7483;50.498;12.138;2022-12-07T14:01:48;96448.00;;;4.30
14784;BMP180;7483;50.498;12.138;2022-12-07T14:04:31;96450.00;;;4.10
14784;BMP180;7483;50.498;12.138;2022-12-07T14:07:01;96436.00;;;3.90
14784;BMP180;7483;50.498;12.138;2022-12-07T14:09:58;96442.00;;;3.70
14784;BMP180;7483;50.498;12.138;2022-12-07T14:12:29;96442.00;;;3.60
14784;BMP180;7483;50.498;12.138;2022-12-07T14:14:59;96435.00;;;3.50
14784;BMP180;7483;50.498;12.138;2022-12-07T14:17:30;96443.00;;;3.50
14784;BMP180;7483;50.498;12.138;2022-12-07T14:20:00;96438.00;;;3.40
14784;BMP180;7483;50.498;12.138;2022-12-07T14:22:32;96430.00;;;3.40
14784;BMP180;7483;50.498;12.138;2022-12-07T14:25:20;96380.00;;;3.40
14784;BMP180;7483;50.498;12.138;2022-12-07T14:27:53;96433.00;;;3.40
14784;BMP180;7483;50.498;12.138;2022-12-07T14:30:26;96430.00;;;3.30
14784;BMP180;7483;50.498;12.138;2022-12-07T14:33:00;96182.00;;;3.10
14784;BMP180;7483;50.498;12.138;2022-12-07T14:35:29;96432.00;;;3.30
14784;BMP180;7483;50.498;12.138;2022-12-07T14:37:58;96431.00;;;3.10
14784;BMP180;7483;50.498;12.138;2022-12-07T14:40:28;96205.00;;;3.00
14784;BMP180;7483;50.498;12.138;2022-12-07T14:43:01;96424.00;;;3.10
14784;BMP180;7483;50.498;12.138;2022-12-07T14:45:30;96389.00;;;3.10
14784;BMP180;7483;50.498;12.138;2022-12-07T14:48:00;96415.00;;;3.10
14784;BMP180;7483;50.498;12.138;2022-12-07T14:50:52;96149.00;;;2.90
14784;BMP180;7483;50.498;12.138;2022-12-07T14:53:46;96420.00;;;3.10
14784;BMP180;7483;50.498;12.138;2022-12-07T14:56:23;96422.00;;;3.00
14784;BMP180;7483;50.498;12.138;2022-12-07T14:58:51;96342.00;;;3.10
14784;BMP180;7483;50.498;12.138;2022-12-07T15:01:19;96429.00;;;3.00
14784;BMP180;7483;50.498;12.138;2022-12-07T15:03:49;96420.00;;;2.90
14784;BMP180;7483;50.498;12.138;2022-12-07T15:06:18;96421.00;;;2.90
14784;BMP180;7483;50.498;12.138;2022-12-07T15:08:46;96421.00;;;2.90
14784;BMP180;7483;50.498;12.138;2022-12-07T15:11:16;96424.00;;;2.60
14784;BMP180;7483;50.498;12.138;2022-12-07T15:13:44;96427.00;;;2.90